AFL3110 ZBAD-NZWN
Flight info
| Callsign | AFL3110 |
|---|---|
| Flight time | N/A |
| Altitude | 39000 |
| Route | MUGLO4K MUGLO W34 ANRAT A326 DONVO G597 AGAVO/N0509F390 Y644 MONSI W61 SOT A582 HKC G339 UNZ A597 AA Q277 OPABI Q412 TPAPA |
| Aircraft | B77W/H-SDE1E2E3FGHIJ2J3J4J5M1RWXY/LB1D1 |
Departure
| Time | 2026-04-30 20:06 |
|---|---|
| Airport | Beijing Daxing International Airport (ZBAD) |
Arrival
| Time | N/A |
|---|---|
| Airport | Wellington International Airport (NZWN) |
| Time | Latitude | Longitude | Altitude | Speed | Heading |
|---|---|---|---|---|---|
| 2026-04-30 19:32 | 39.50741 | 116.41000 | 89 ft | 0 kts | 60° |
| 2026-04-30 19:47 | 39.50737 | 116.40992 | 89 ft | 1 kts | 59° |
| 2026-04-30 19:47 | 39.50733 | 116.40984 | 107 ft | 1 kts | 59° |
| 2026-04-30 19:48 | 39.50730 | 116.40975 | 109 ft | 1 kts | 59° |
| 2026-04-30 19:48 | 39.50726 | 116.40967 | 111 ft | 1 kts | 59° |
| 2026-04-30 19:48 | 39.50722 | 116.40959 | 113 ft | 1 kts | 59° |
| 2026-04-30 19:48 | 39.50718 | 116.40951 | 97 ft | 1 kts | 58° |
| 2026-04-30 19:49 | 39.50714 | 116.40943 | 73 ft | 1 kts | 58° |
| 2026-04-30 19:49 | 39.50707 | 116.40927 | 80 ft | 1 kts | 57° |
| 2026-04-30 19:49 | 39.50703 | 116.40920 | 90 ft | 1 kts | 56° |
| 2026-04-30 19:50 | 39.50699 | 116.40912 | 93 ft | 1 kts | 55° |
| 2026-04-30 19:50 | 39.50695 | 116.40905 | 93 ft | 1 kts | 54° |
| 2026-04-30 19:50 | 39.50691 | 116.40897 | 93 ft | 1 kts | 53° |
| 2026-04-30 19:50 | 39.50687 | 116.40890 | 93 ft | 1 kts | 52° |
| 2026-04-30 19:51 | 39.50682 | 116.40883 | 93 ft | 1 kts | 50° |
| 2026-04-30 19:51 | 39.50672 | 116.40868 | 94 ft | 3 kts | 44° |
| 2026-04-30 19:51 | 39.50657 | 116.40851 | 94 ft | 2 kts | 40° |
| 2026-04-30 19:51 | 39.50648 | 116.40841 | 93 ft | 2 kts | 42° |
| 2026-04-30 19:52 | 39.50643 | 116.40835 | 92 ft | 0 kts | 44° |
| 2026-04-30 19:54 | 39.50647 | 116.40847 | 94 ft | 2 kts | 75° |
| 2026-04-30 19:54 | 39.50642 | 116.40869 | 91 ft | 3 kts | 114° |
| 2026-04-30 19:54 | 39.50633 | 116.40883 | 92 ft | 3 kts | 132° |
| 2026-04-30 19:55 | 39.50615 | 116.40898 | 94 ft | 3 kts | 154° |
| 2026-04-30 19:55 | 39.50546 | 116.40898 | 91 ft | 12 kts | 185° |
| 2026-04-30 19:55 | 39.50461 | 116.40889 | 91 ft | 12 kts | 178° |
| 2026-04-30 19:55 | 39.50377 | 116.40900 | 92 ft | 12 kts | 173° |
| 2026-04-30 19:56 | 39.50320 | 116.40909 | 92 ft | 12 kts | 173° |
| 2026-04-30 19:56 | 39.50237 | 116.40923 | 93 ft | 12 kts | 173° |
| 2026-04-30 19:56 | 39.50181 | 116.40989 | 93 ft | 12 kts | 99° |
| 2026-04-30 19:56 | 39.50189 | 116.41097 | 93 ft | 12 kts | 83° |
| 2026-04-30 19:57 | 39.50200 | 116.41205 | 91 ft | 12 kts | 83° |
| 2026-04-30 19:57 | 39.50210 | 116.41313 | 92 ft | 12 kts | 83° |
| 2026-04-30 19:57 | 39.50220 | 116.41421 | 91 ft | 12 kts | 83° |
| 2026-04-30 19:57 | 39.50230 | 116.41530 | 93 ft | 12 kts | 83° |
| 2026-04-30 19:58 | 39.50239 | 116.41638 | 89 ft | 12 kts | 83° |
| 2026-04-30 19:58 | 39.50250 | 116.41746 | 92 ft | 12 kts | 83° |
| 2026-04-30 19:58 | 39.50260 | 116.41854 | 93 ft | 12 kts | 83° |
| 2026-04-30 19:58 | 39.50270 | 116.41960 | 90 ft | 12 kts | 83° |
| 2026-04-30 19:59 | 39.50281 | 116.42068 | 92 ft | 12 kts | 83° |
| 2026-04-30 19:59 | 39.50291 | 116.42176 | 92 ft | 12 kts | 83° |
| 2026-04-30 19:59 | 39.50238 | 116.42313 | 91 ft | 10 kts | 169° |
| 2026-04-30 20:00 | 39.50169 | 116.42332 | 94 ft | 10 kts | 159° |
| 2026-04-30 20:00 | 39.50139 | 116.42410 | 92 ft | 10 kts | 94° |
| 2026-04-30 20:00 | 39.50141 | 116.42467 | 93 ft | 0 kts | 85° |
| 2026-04-30 20:03 | 39.50141 | 116.42476 | 93 ft | 2 kts | 85° |
| 2026-04-30 20:03 | 39.50142 | 116.42490 | 94 ft | 2 kts | 85° |
| 2026-04-30 20:04 | 39.50143 | 116.42504 | 96 ft | 2 kts | 85° |
| 2026-04-30 20:04 | 39.50147 | 116.42564 | 98 ft | 9 kts | 85° |
| 2026-04-30 20:04 | 39.50127 | 116.42637 | 100 ft | 9 kts | 128° |
| 2026-04-30 20:05 | 39.50016 | 116.42687 | 101 ft | 6 kts | 172° |
| 2026-04-30 20:05 | 39.50015 | 116.42687 | 101 ft | 0 kts | 172° |
| 2026-04-30 20:05 | 39.49582 | 116.42755 | 104 ft | 97 kts | 173° |
| 2026-04-30 20:06 | 39.48733 | 116.42889 | 100 ft | 161 kts | 173° |
| 2026-04-30 20:06 | 39.47358 | 116.43112 | 147 ft | 232 kts | 172° |
| 2026-04-30 20:06 | 39.45688 | 116.43405 | 1080 ft | 246 kts | 169° |
| 2026-04-30 20:06 | 39.44185 | 116.44457 | 2375 ft | 250 kts | 134° |
| 2026-04-30 20:07 | 39.43397 | 116.46411 | 3214 ft | 248 kts | 97° |
| 2026-04-30 20:07 | 39.43607 | 116.48603 | 3623 ft | 250 kts | 59° |
| 2026-04-30 20:07 | 39.45596 | 116.52387 | 4397 ft | 261 kts | 59° |
| 2026-04-30 20:08 | 39.46401 | 116.54474 | 4874 ft | 256 kts | 65° |
| 2026-04-30 20:08 | 39.47061 | 116.56593 | 4857 ft | 251 kts | 68° |
| 2026-04-30 20:08 | 39.47649 | 116.58735 | 4899 ft | 253 kts | 69° |
| 2026-04-30 20:08 | 39.48214 | 116.60882 | 4890 ft | 251 kts | 70° |
| 2026-04-30 20:09 | 39.48766 | 116.63017 | 4904 ft | 249 kts | 70° |
| 2026-04-30 20:09 | 39.49024 | 116.65232 | 4905 ft | 257 kts | 98° |
| 2026-04-30 20:09 | 39.48402 | 116.70112 | 4934 ft | 285 kts | 97° |
| 2026-04-30 20:10 | 39.47702 | 116.75165 | 4885 ft | 283 kts | 116° |
| 2026-04-30 20:10 | 39.46498 | 116.77101 | 4957 ft | 280 kts | 146° |
| 2026-04-30 20:10 | 39.44771 | 116.78272 | 5482 ft | 283 kts | 159° |
| 2026-04-30 20:11 | 39.41039 | 116.80140 | 6734 ft | 290 kts | 159° |
| 2026-04-30 20:11 | 39.39174 | 116.81070 | 7398 ft | 292 kts | 159° |
| 2026-04-30 20:11 | 39.37274 | 116.82024 | 8037 ft | 294 kts | 159° |
| 2026-04-30 20:12 | 39.33432 | 116.83967 | 9330 ft | 299 kts | 159° |
| 2026-04-30 20:12 | 39.31484 | 116.84952 | 9947 ft | 302 kts | 159° |
| 2026-04-30 20:12 | 39.29505 | 116.85951 | 10388 ft | 312 kts | 159° |
| 2026-04-30 20:13 | 39.27417 | 116.87006 | 10535 ft | 333 kts | 159° |
| 2026-04-30 20:13 | 39.25193 | 116.88129 | 10705 ft | 353 kts | 159° |
| 2026-04-30 20:13 | 39.22838 | 116.89318 | 10868 ft | 373 kts | 159° |
| 2026-04-30 20:13 | 39.20381 | 116.90558 | 11276 ft | 385 kts | 159° |
| 2026-04-30 20:14 | 39.17856 | 116.91831 | 11825 ft | 393 kts | 159° |
| 2026-04-30 20:14 | 39.15435 | 116.93433 | 12286 ft | 397 kts | 141° |
| 2026-04-30 20:14 | 39.13618 | 116.96116 | 12848 ft | 401 kts | 118° |
| 2026-04-30 20:14 | 39.12590 | 116.99440 | 13591 ft | 401 kts | 101° |
| 2026-04-30 20:15 | 39.12278 | 117.02997 | 14161 ft | 401 kts | 91° |
| 2026-04-30 20:15 | 39.12142 | 117.06619 | 14647 ft | 409 kts | 91° |
| 2026-04-30 20:15 | 39.12007 | 117.10295 | 15263 ft | 413 kts | 91° |
| 2026-04-30 20:15 | 39.11854 | 117.13998 | 15921 ft | 416 kts | 91° |
| 2026-04-30 20:16 | 39.11680 | 117.17735 | 16534 ft | 420 kts | 91° |
| 2026-04-30 20:16 | 39.11490 | 117.21507 | 17127 ft | 425 kts | 91° |
| 2026-04-30 20:16 | 39.11294 | 117.25326 | 17696 ft | 430 kts | 91° |
| 2026-04-30 20:16 | 39.11093 | 117.29194 | 18247 ft | 435 kts | 91° |
| 2026-04-30 20:17 | 39.10888 | 117.33105 | 18738 ft | 440 kts | 91° |
| 2026-04-30 20:17 | 39.10681 | 117.37052 | 19211 ft | 445 kts | 91° |
| 2026-04-30 20:17 | 39.10473 | 117.40994 | 19669 ft | 450 kts | 91° |
| 2026-04-30 20:17 | 39.10258 | 117.45034 | 20136 ft | 455 kts | 91° |
| 2026-04-30 20:18 | 39.10040 | 117.49118 | 20592 ft | 460 kts | 91° |
| 2026-04-30 20:18 | 39.09818 | 117.53248 | 21014 ft | 466 kts | 91° |
| 2026-04-30 20:18 | 39.09592 | 117.57424 | 21471 ft | 470 kts | 91° |
| 2026-04-30 20:18 | 39.09361 | 117.61647 | 21920 ft | 475 kts | 91° |
| 2026-04-30 20:19 | 39.09127 | 117.65905 | 22362 ft | 479 kts | 91° |
| 2026-04-30 20:19 | 39.08889 | 117.70212 | 22792 ft | 484 kts | 91° |
| 2026-04-30 20:19 | 39.08648 | 117.74552 | 23208 ft | 489 kts | 91° |
| 2026-04-30 20:19 | 39.08402 | 117.78936 | 23606 ft | 493 kts | 91° |
| 2026-04-30 20:20 | 39.08152 | 117.83370 | 23971 ft | 497 kts | 91° |
| 2026-04-30 20:20 | 39.07899 | 117.87819 | 24360 ft | 500 kts | 91° |
| 2026-04-30 20:20 | 39.07643 | 117.92295 | 24723 ft | 503 kts | 91° |
| 2026-04-30 20:20 | 39.07384 | 117.96802 | 25085 ft | 507 kts | 91° |
| 2026-04-30 20:21 | 39.07121 | 118.01346 | 25420 ft | 511 kts | 91° |
| 2026-04-30 20:21 | 39.06784 | 118.05909 | 25748 ft | 516 kts | 95° |
| 2026-04-30 20:21 | 39.06157 | 118.10476 | 26141 ft | 520 kts | 99° |
| 2026-04-30 20:21 | 39.05370 | 118.15025 | 26552 ft | 522 kts | 100° |
| 2026-04-30 20:22 | 39.04544 | 118.19583 | 26892 ft | 525 kts | 100° |
| 2026-04-30 20:22 | 39.03735 | 118.24179 | 27181 ft | 529 kts | 99° |
| 2026-04-30 20:22 | 39.02959 | 118.28815 | 27473 ft | 532 kts | 99° |
| 2026-04-30 20:22 | 39.02206 | 118.33480 | 27780 ft | 535 kts | 98° |
| 2026-04-30 20:23 | 39.01471 | 118.38117 | 28092 ft | 537 kts | 98° |
| 2026-04-30 20:23 | 39.00724 | 118.42823 | 28438 ft | 538 kts | 98° |
| 2026-04-30 20:23 | 38.99967 | 118.47546 | 28732 ft | 540 kts | 98° |
| 2026-04-30 20:23 | 38.99200 | 118.52288 | 28995 ft | 543 kts | 98° |
| 2026-04-30 20:24 | 38.98428 | 118.57050 | 29271 ft | 545 kts | 98° |
| 2026-04-30 20:24 | 38.97653 | 118.61818 | 29638 ft | 545 kts | 98° |
| 2026-04-30 20:24 | 38.96876 | 118.66584 | 30029 ft | 544 kts | 98° |
| 2026-04-30 20:24 | 38.96099 | 118.71342 | 30438 ft | 541 kts | 98° |
| 2026-04-30 20:25 | 38.94548 | 118.80807 | 30969 ft | 543 kts | 98° |
| 2026-04-30 20:25 | 38.93768 | 118.85563 | 31160 ft | 545 kts | 98° |
| 2026-04-30 20:26 | 38.92194 | 118.95104 | 31640 ft | 547 kts | 97° |
| 2026-04-30 20:26 | 38.90612 | 119.04618 | 32302 ft | 544 kts | 97° |
| 2026-04-30 20:26 | 38.89820 | 119.09372 | 32468 ft | 546 kts | 97° |
| 2026-04-30 20:27 | 38.88222 | 119.18931 | 32808 ft | 549 kts | 97° |
| 2026-04-30 20:27 | 38.86606 | 119.28544 | 32919 ft | 551 kts | 97° |
| 2026-04-30 20:28 | 38.83374 | 119.47585 | 32920 ft | 544 kts | 97° |
| 2026-04-30 20:30 | 38.79316 | 119.71259 | 32916 ft | 543 kts | 97° |
| 2026-04-30 20:30 | 38.75114 | 119.84694 | 32945 ft | 551 kts | 126° |
| 2026-04-30 20:31 | 38.67324 | 119.95302 | 32910 ft | 546 kts | 122° |
| 2026-04-30 20:32 | 38.63576 | 120.08703 | 32942 ft | 533 kts | 94° |
| 2026-04-30 20:32 | 38.62217 | 120.18087 | 32934 ft | 539 kts | 97° |
| 2026-04-30 20:33 | 38.59894 | 120.32183 | 32922 ft | 541 kts | 97° |
| 2026-04-30 20:34 | 38.57580 | 120.46249 | 32929 ft | 537 kts | 97° |
| 2026-04-30 20:35 | 38.55279 | 120.60189 | 32921 ft | 531 kts | 97° |
| 2026-04-30 20:35 | 38.53038 | 120.73989 | 32926 ft | 527 kts | 97° |
| 2026-04-30 20:36 | 38.51555 | 120.83079 | 32940 ft | 527 kts | 97° |
| 2026-04-30 20:37 | 38.49291 | 120.96815 | 32951 ft | 528 kts | 98° |
| 2026-04-30 20:37 | 38.47767 | 121.05995 | 32934 ft | 528 kts | 98° |
| 2026-04-30 20:38 | 38.46239 | 121.15169 | 32919 ft | 528 kts | 97° |
| 2026-04-30 20:38 | 38.44822 | 121.24356 | 32918 ft | 527 kts | 96° |
| 2026-04-30 20:39 | 38.42596 | 121.38082 | 32914 ft | 525 kts | 98° |
| 2026-04-30 20:40 | 38.40335 | 121.51705 | 32912 ft | 522 kts | 97° |
| 2026-04-30 20:40 | 38.38828 | 121.60751 | 32926 ft | 521 kts | 97° |
| 2026-04-30 20:41 | 38.36572 | 121.74217 | 32911 ft | 519 kts | 97° |
| 2026-04-30 20:41 | 38.35057 | 121.83211 | 32935 ft | 519 kts | 97° |
| 2026-04-30 20:42 | 38.33535 | 121.92195 | 32922 ft | 519 kts | 97° |
| 2026-04-30 20:43 | 38.31501 | 122.04139 | 32929 ft | 518 kts | 97° |
| 2026-04-30 20:43 | 38.29964 | 122.13111 | 32937 ft | 518 kts | 97° |
| 2026-04-30 20:44 | 38.27652 | 122.26560 | 32924 ft | 518 kts | 96° |
| 2026-04-30 20:45 | 38.24402 | 122.44334 | 32937 ft | 524 kts | 113° |
| 2026-04-30 20:45 | 38.20169 | 122.51892 | 32914 ft | 531 kts | 134° |
| 2026-04-30 20:46 | 38.09624 | 122.65096 | 32929 ft | 534 kts | 132° |
| 2026-04-30 20:47 | 38.01835 | 122.75236 | 32930 ft | 535 kts | 132° |
| 2026-04-30 20:48 | 37.94055 | 122.85330 | 32927 ft | 536 kts | 132° |
| 2026-04-30 20:48 | 37.88834 | 122.92076 | 32940 ft | 536 kts | 132° |
| 2026-04-30 20:49 | 37.83608 | 122.98816 | 32920 ft | 536 kts | 131° |
| 2026-04-30 20:50 | 37.75755 | 123.08918 | 32928 ft | 536 kts | 132° |
| 2026-04-30 20:50 | 37.70522 | 123.15631 | 32933 ft | 536 kts | 132° |
| 2026-04-30 20:51 | 37.65287 | 123.22334 | 32932 ft | 536 kts | 131° |
| 2026-04-30 20:51 | 37.57437 | 123.32386 | 32932 ft | 535 kts | 130° |
| 2026-04-30 20:52 | 37.52827 | 123.39598 | 32950 ft | 530 kts | 122° |
| 2026-04-30 20:53 | 37.46244 | 123.50842 | 32944 ft | 532 kts | 122° |
| 2026-04-30 20:53 | 37.41795 | 123.58316 | 32939 ft | 534 kts | 123° |
| 2026-04-30 20:54 | 37.35074 | 123.69518 | 32977 ft | 535 kts | 123° |
| 2026-04-30 20:55 | 37.28348 | 123.80705 | 32941 ft | 537 kts | 123° |
| 2026-04-30 20:55 | 37.23839 | 123.88190 | 32936 ft | 537 kts | 123° |
| 2026-04-30 20:56 | 37.17946 | 123.99866 | 32946 ft | 517 kts | 101° |
| 2026-04-30 20:56 | 37.16836 | 124.08545 | 32931 ft | 493 kts | 79° |
| 2026-04-30 20:57 | 37.17079 | 124.12803 | 32959 ft | 489 kts | 77° |
| 2026-04-30 20:57 | 37.17505 | 124.21356 | 32946 ft | 494 kts | 79° |
| 2026-04-30 20:58 | 37.17843 | 124.34311 | 32952 ft | 496 kts | 81° |
| 2026-04-30 20:58 | 37.18029 | 124.42906 | 32928 ft | 494 kts | 81° |
| 2026-04-30 20:59 | 37.18323 | 124.55810 | 32938 ft | 491 kts | 81° |
| 2026-04-30 21:00 | 37.18689 | 124.72883 | 32938 ft | 487 kts | 81° |
| 2026-04-30 21:01 | 37.18949 | 124.85591 | 32940 ft | 487 kts | 82° |
| 2026-04-30 21:02 | 37.19208 | 124.98380 | 32926 ft | 488 kts | 82° |
| 2026-04-30 21:02 | 37.19375 | 125.06900 | 32930 ft | 489 kts | 83° |
| 2026-04-30 21:03 | 37.19534 | 125.15368 | 32924 ft | 488 kts | 83° |
| 2026-04-30 21:03 | 37.19687 | 125.23880 | 32926 ft | 488 kts | 83° |
| 2026-04-30 21:04 | 37.19834 | 125.32396 | 32931 ft | 488 kts | 84° |
| 2026-04-30 21:04 | 37.20045 | 125.45171 | 32915 ft | 488 kts | 84° |
| 2026-04-30 21:05 | 37.20174 | 125.53684 | 32932 ft | 488 kts | 85° |
| 2026-04-30 21:05 | 37.20284 | 125.62182 | 32915 ft | 489 kts | 85° |
| 2026-04-30 21:06 | 37.20389 | 125.70706 | 32917 ft | 489 kts | 85° |
| 2026-04-30 21:06 | 37.20493 | 125.79225 | 32925 ft | 488 kts | 86° |
| 2026-04-30 21:07 | 37.20588 | 125.87711 | 32913 ft | 488 kts | 86° |
| 2026-04-30 21:07 | 37.20678 | 125.96218 | 32908 ft | 487 kts | 86° |
| 2026-04-30 21:08 | 37.20764 | 126.04711 | 32909 ft | 487 kts | 86° |
| 2026-04-30 21:08 | 37.20843 | 126.13187 | 32901 ft | 486 kts | 86° |
| 2026-04-30 21:09 | 37.20917 | 126.21672 | 32906 ft | 486 kts | 86° |
| 2026-04-30 21:09 | 37.20984 | 126.30153 | 32906 ft | 486 kts | 87° |
| 2026-04-30 21:10 | 37.21045 | 126.38645 | 32893 ft | 486 kts | 87° |
| 2026-04-30 21:10 | 37.21102 | 126.47132 | 32884 ft | 486 kts | 87° |
| 2026-04-30 21:11 | 37.21156 | 126.55623 | 32883 ft | 487 kts | 88° |
| 2026-04-30 21:11 | 37.21206 | 126.64128 | 32877 ft | 487 kts | 88° |
| 2026-04-30 21:12 | 37.21252 | 126.72622 | 32873 ft | 486 kts | 88° |
| 2026-04-30 21:12 | 37.20973 | 126.81023 | 32871 ft | 485 kts | 101° |
| 2026-04-30 21:13 | 37.19971 | 126.85064 | 32884 ft | 486 kts | 112° |
| 2026-04-30 21:13 | 37.18396 | 126.88817 | 32867 ft | 488 kts | 124° |
| 2026-04-30 21:13 | 37.14164 | 126.95483 | 32878 ft | 489 kts | 128° |
| 2026-04-30 21:14 | 37.09979 | 127.02210 | 32889 ft | 490 kts | 128° |
| 2026-04-30 21:14 | 37.05319 | 127.08438 | 32893 ft | 491 kts | 135° |
| 2026-04-30 21:15 | 37.00397 | 127.14418 | 32865 ft | 493 kts | 135° |
| 2026-04-30 21:15 | 36.95495 | 127.20440 | 32864 ft | 495 kts | 135° |
| 2026-04-30 21:16 | 36.90597 | 127.26503 | 32873 ft | 495 kts | 135° |
| 2026-04-30 21:16 | 36.85726 | 127.32524 | 32875 ft | 495 kts | 135° |
| 2026-04-30 21:17 | 36.80828 | 127.38550 | 32879 ft | 494 kts | 135° |
| 2026-04-30 21:17 | 36.75930 | 127.44551 | 32882 ft | 492 kts | 135° |
| 2026-04-30 21:18 | 36.71048 | 127.50527 | 32883 ft | 491 kts | 135° |
| 2026-04-30 21:18 | 36.66170 | 127.56490 | 32883 ft | 490 kts | 135° |
| 2026-04-30 21:19 | 36.61291 | 127.62445 | 32887 ft | 491 kts | 135° |
| 2026-04-30 21:19 | 36.56441 | 127.68357 | 32886 ft | 491 kts | 135° |
| 2026-04-30 21:20 | 36.51560 | 127.74296 | 32894 ft | 491 kts | 136° |
| 2026-04-30 21:20 | 36.46667 | 127.80240 | 32888 ft | 491 kts | 136° |
| 2026-04-30 21:21 | 36.41778 | 127.86172 | 32884 ft | 491 kts | 136° |
| 2026-04-30 21:22 | 36.34449 | 127.95069 | 32876 ft | 491 kts | 136° |
| 2026-04-30 21:23 | 36.24631 | 128.06941 | 32886 ft | 495 kts | 136° |
| 2026-04-30 21:23 | 36.17211 | 128.15862 | 32885 ft | 497 kts | 136° |
| 2026-04-30 21:24 | 36.12273 | 128.21791 | 32890 ft | 496 kts | 136° |
| 2026-04-30 21:24 | 36.07322 | 128.27726 | 32880 ft | 495 kts | 136° |
| 2026-04-30 21:25 | 35.99931 | 128.36566 | 32889 ft | 492 kts | 137° |
| 2026-04-30 21:26 | 35.92546 | 128.45375 | 32889 ft | 492 kts | 137° |
| 2026-04-30 21:27 | 35.85139 | 128.54185 | 32893 ft | 494 kts | 137° |
| 2026-04-30 21:27 | 35.80757 | 128.58703 | 32884 ft | 494 kts | 146° |
| 2026-04-30 21:28 | 35.71721 | 128.64728 | 32897 ft | 493 kts | 156° |
| 2026-04-30 21:29 | 35.62408 | 128.70189 | 32890 ft | 494 kts | 156° |
| 2026-04-30 21:30 | 35.46973 | 128.79375 | 32893 ft | 492 kts | 156° |
| 2026-04-30 21:31 | 35.31583 | 128.88507 | 32886 ft | 493 kts | 156° |
| 2026-04-30 21:32 | 35.22315 | 128.93989 | 32882 ft | 492 kts | 157° |
| 2026-04-30 21:32 | 35.16148 | 128.97631 | 32872 ft | 492 kts | 157° |
| 2026-04-30 21:33 | 35.06881 | 129.03083 | 32891 ft | 492 kts | 158° |
| 2026-04-30 21:34 | 35.00737 | 129.06685 | 32880 ft | 493 kts | 157° |
| 2026-04-30 21:34 | 34.91449 | 129.12124 | 32874 ft | 494 kts | 158° |
| 2026-04-30 21:35 | 34.85264 | 129.15740 | 32882 ft | 492 kts | 159° |
| 2026-04-30 21:35 | 34.79087 | 129.19345 | 32887 ft | 491 kts | 159° |
| 2026-04-30 21:36 | 34.72936 | 129.22929 | 32886 ft | 490 kts | 159° |
| 2026-04-30 21:37 | 34.60580 | 129.29916 | 32890 ft | 488 kts | 160° |
| 2026-04-30 21:37 | 34.54401 | 129.33374 | 32893 ft | 489 kts | 160° |
| 2026-04-30 21:38 | 34.48266 | 129.36812 | 32886 ft | 488 kts | 161° |
| 2026-04-30 21:38 | 34.42099 | 129.40269 | 32884 ft | 487 kts | 161° |
| 2026-04-30 21:39 | 34.35958 | 129.43708 | 32884 ft | 486 kts | 161° |
| 2026-04-30 21:39 | 34.29811 | 129.47141 | 32893 ft | 485 kts | 161° |
| 2026-04-30 21:40 | 34.23679 | 129.50560 | 32895 ft | 485 kts | 161° |
| 2026-04-30 21:40 | 34.17544 | 129.53975 | 32896 ft | 485 kts | 161° |
| 2026-04-30 21:41 | 34.11414 | 129.57381 | 32904 ft | 485 kts | 162° |
| 2026-04-30 21:41 | 34.05288 | 129.60785 | 32895 ft | 484 kts | 163° |
| 2026-04-30 21:42 | 33.99215 | 129.64149 | 32897 ft | 484 kts | 163° |
| 2026-04-30 21:42 | 33.93093 | 129.67544 | 32890 ft | 484 kts | 163° |
| 2026-04-30 21:43 | 33.86976 | 129.70946 | 32890 ft | 483 kts | 162° |
| 2026-04-30 21:43 | 33.80864 | 129.74340 | 32897 ft | 483 kts | 163° |
| 2026-04-30 21:44 | 33.74740 | 129.77699 | 32857 ft | 481 kts | 165° |
| 2026-04-30 21:44 | 33.68514 | 129.80296 | 32864 ft | 475 kts | 169° |
| 2026-04-30 21:45 | 33.62228 | 129.82755 | 32855 ft | 474 kts | 170° |
| 2026-04-30 21:45 | 33.55976 | 129.85233 | 32865 ft | 473 kts | 170° |
| 2026-04-30 21:46 | 33.49731 | 129.87726 | 32876 ft | 472 kts | 170° |
| 2026-04-30 21:46 | 33.43497 | 129.90213 | 32885 ft | 472 kts | 170° |
| 2026-04-30 21:47 | 33.37278 | 129.92690 | 32901 ft | 470 kts | 171° |
| 2026-04-30 21:47 | 33.31049 | 129.95167 | 32895 ft | 471 kts | 171° |
| 2026-04-30 21:48 | 33.24826 | 129.97637 | 32900 ft | 472 kts | 171° |
| 2026-04-30 21:48 | 33.18585 | 130.00106 | 32889 ft | 472 kts | 171° |
| 2026-04-30 21:49 | 33.12345 | 130.02564 | 32885 ft | 471 kts | 172° |
| 2026-04-30 21:49 | 33.06134 | 130.05012 | 32882 ft | 469 kts | 172° |
| 2026-04-30 21:50 | 32.99973 | 130.07416 | 32912 ft | 468 kts | 172° |
| 2026-04-30 21:50 | 32.93772 | 130.09862 | 32917 ft | 469 kts | 172° |
| 2026-04-30 21:51 | 32.87573 | 130.12291 | 32908 ft | 468 kts | 173° |
| 2026-04-30 21:51 | 32.81379 | 130.14717 | 32910 ft | 468 kts | 173° |
| 2026-04-30 21:52 | 32.75190 | 130.17133 | 32914 ft | 469 kts | 173° |
| 2026-04-30 21:52 | 32.68986 | 130.19553 | 32919 ft | 470 kts | 173° |
| 2026-04-30 21:53 | 32.62802 | 130.21963 | 32903 ft | 470 kts | 173° |
| 2026-04-30 21:53 | 32.56592 | 130.24383 | 32921 ft | 471 kts | 173° |
| 2026-04-30 21:54 | 32.50382 | 130.26843 | 32906 ft | 470 kts | 173° |
| 2026-04-30 21:54 | 32.44181 | 130.29304 | 32924 ft | 469 kts | 173° |
| 2026-04-30 21:55 | 32.37999 | 130.31744 | 32915 ft | 467 kts | 173° |
| 2026-04-30 21:55 | 32.31838 | 130.34166 | 32934 ft | 466 kts | 173° |
| 2026-04-30 21:56 | 32.25726 | 130.36570 | 32935 ft | 464 kts | 173° |
| 2026-04-30 21:56 | 32.19604 | 130.38977 | 32900 ft | 463 kts | 173° |
| 2026-04-30 21:57 | 32.13494 | 130.41375 | 32921 ft | 462 kts | 174° |
| 2026-04-30 21:57 | 32.07391 | 130.43752 | 32925 ft | 462 kts | 174° |
| 2026-04-30 21:58 | 32.01284 | 130.46119 | 32943 ft | 463 kts | 174° |
| 2026-04-30 21:58 | 31.95159 | 130.48481 | 32911 ft | 462 kts | 174° |
| 2026-04-30 21:59 | 31.89061 | 130.50839 | 32911 ft | 461 kts | 175° |
| 2026-04-30 22:00 | 31.79967 | 130.54346 | 32913 ft | 460 kts | 175° |
| 2026-04-30 22:00 | 31.70842 | 130.57857 | 32923 ft | 459 kts | 175° |
| 2026-04-30 22:01 | 31.64786 | 130.60175 | 32915 ft | 457 kts | 176° |
| 2026-04-30 22:01 | 31.58742 | 130.62438 | 32935 ft | 456 kts | 176° |
| 2026-04-30 22:02 | 31.52684 | 130.64716 | 32935 ft | 458 kts | 176° |
| 2026-04-30 22:02 | 31.46615 | 130.66997 | 32935 ft | 458 kts | 176° |
| 2026-04-30 22:03 | 31.40530 | 130.69285 | 32931 ft | 459 kts | 176° |
| 2026-04-30 22:03 | 31.34447 | 130.71569 | 32932 ft | 459 kts | 176° |
| 2026-04-30 22:04 | 31.28368 | 130.73849 | 32935 ft | 459 kts | 176° |
| 2026-04-30 22:05 | 31.19247 | 130.77273 | 32893 ft | 458 kts | 176° |
| 2026-04-30 22:05 | 31.13177 | 130.79551 | 32924 ft | 458 kts | 176° |
| 2026-04-30 22:06 | 31.07144 | 130.81786 | 32932 ft | 457 kts | 177° |
| 2026-04-30 22:06 | 30.98034 | 130.85134 | 32935 ft | 458 kts | 177° |
| 2026-04-30 22:07 | 30.94996 | 130.86251 | 32828 ft | 458 kts | 177° |
| 2026-04-30 22:07 | 30.91958 | 130.87368 | 32882 ft | 457 kts | 177° |
| 2026-04-30 22:07 | 30.85896 | 130.89626 | 32925 ft | 458 kts | 176° |
| 2026-04-30 22:08 | 30.79819 | 130.91904 | 32877 ft | 459 kts | 176° |
| 2026-04-30 22:08 | 30.73745 | 130.94168 | 32905 ft | 459 kts | 176° |
| 2026-04-30 22:09 | 30.67656 | 130.96431 | 32907 ft | 458 kts | 177° |
| 2026-04-30 22:09 | 30.61584 | 130.98850 | 32907 ft | 470 kts | 171° |
| 2026-04-30 22:10 | 30.55667 | 131.02473 | 32911 ft | 493 kts | 161° |
| 2026-04-30 22:10 | 30.49955 | 131.06893 | 32920 ft | 493 kts | 161° |
| 2026-04-30 22:11 | 30.41407 | 131.13351 | 32810 ft | 492 kts | 161° |
| 2026-04-30 22:12 | 30.35697 | 131.17674 | 32919 ft | 490 kts | 161° |
| 2026-04-30 22:12 | 30.29989 | 131.21990 | 32939 ft | 491 kts | 161° |
| 2026-04-30 22:13 | 30.24258 | 131.26315 | 32936 ft | 492 kts | 161° |
| 2026-04-30 22:13 | 30.19508 | 131.29893 | 32935 ft | 492 kts | 161° |
| 2026-04-30 22:14 | 30.13749 | 131.34183 | 32887 ft | 492 kts | 161° |
| 2026-04-30 22:14 | 30.07980 | 131.38467 | 32939 ft | 492 kts | 160° |
| 2026-04-30 22:15 | 30.02217 | 131.42749 | 32944 ft | 493 kts | 160° |
| 2026-04-30 22:15 | 29.96447 | 131.47035 | 32944 ft | 494 kts | 160° |
| 2026-04-30 22:16 | 29.90670 | 131.51333 | 32946 ft | 494 kts | 160° |
| 2026-04-30 22:17 | 29.79152 | 131.59889 | 32899 ft | 493 kts | 159° |
| 2026-04-30 22:17 | 29.70490 | 131.66306 | 32932 ft | 494 kts | 159° |
| 2026-04-30 22:18 | 29.61809 | 131.72724 | 32933 ft | 495 kts | 159° |
| 2026-04-30 22:19 | 29.53268 | 131.79498 | 32884 ft | 501 kts | 155° |
| 2026-04-30 22:20 | 29.44817 | 131.86583 | 32934 ft | 502 kts | 155° |
| 2026-04-30 22:20 | 29.36338 | 131.93606 | 32937 ft | 504 kts | 155° |
| 2026-04-30 22:21 | 29.30637 | 131.98305 | 32943 ft | 504 kts | 155° |
| 2026-04-30 22:21 | 29.24950 | 132.02988 | 32933 ft | 503 kts | 155° |
| 2026-04-30 22:22 | 29.19268 | 132.07661 | 32900 ft | 502 kts | 154° |
| 2026-04-30 22:22 | 29.13596 | 132.12319 | 32931 ft | 501 kts | 154° |
| 2026-04-30 22:23 | 29.07957 | 132.16943 | 32935 ft | 501 kts | 154° |
| 2026-04-30 22:23 | 29.02290 | 132.21583 | 32933 ft | 501 kts | 154° |
| 2026-04-30 22:24 | 28.96616 | 132.26226 | 32937 ft | 501 kts | 154° |
| 2026-04-30 22:24 | 28.90932 | 132.30869 | 32944 ft | 501 kts | 154° |
| 2026-04-30 22:25 | 28.85262 | 132.35496 | 32943 ft | 501 kts | 154° |
| 2026-04-30 22:25 | 28.79619 | 132.40091 | 32949 ft | 502 kts | 154° |
| 2026-04-30 22:26 | 28.71094 | 132.47023 | 32951 ft | 502 kts | 153° |
| 2026-04-30 22:27 | 28.65390 | 132.51654 | 32941 ft | 504 kts | 153° |
| 2026-04-30 22:27 | 28.56836 | 132.58589 | 32947 ft | 503 kts | 153° |
| 2026-04-30 22:28 | 28.48313 | 132.65484 | 32954 ft | 501 kts | 153° |
| 2026-04-30 22:29 | 28.36946 | 132.74658 | 32943 ft | 501 kts | 153° |
| 2026-04-30 22:31 | 28.16979 | 132.90710 | 32929 ft | 502 kts | 152° |
| 2026-04-30 22:32 | 28.02784 | 133.02072 | 32948 ft | 500 kts | 153° |
| 2026-04-30 22:33 | 27.88575 | 133.13420 | 32969 ft | 502 kts | 152° |
| 2026-04-30 22:35 | 27.74298 | 133.24781 | 32960 ft | 501 kts | 152° |
| 2026-04-30 22:36 | 27.60047 | 133.36094 | 32958 ft | 501 kts | 152° |
| 2026-04-30 22:37 | 27.48648 | 133.45114 | 32962 ft | 502 kts | 152° |
| 2026-04-30 22:38 | 27.37186 | 133.54161 | 32965 ft | 504 kts | 152° |
| 2026-04-30 22:39 | 27.28568 | 133.60949 | 32963 ft | 504 kts | 152° |
| 2026-04-30 22:40 | 27.11316 | 133.74499 | 32971 ft | 506 kts | 151° |
| 2026-04-30 22:41 | 26.96860 | 133.85812 | 32965 ft | 507 kts | 151° |
| 2026-04-30 22:43 | 26.79502 | 133.99351 | 32983 ft | 506 kts | 151° |
| 2026-04-30 22:44 | 26.67934 | 134.08342 | 32967 ft | 506 kts | 151° |
| 2026-04-30 22:45 | 26.50614 | 134.21756 | 32987 ft | 506 kts | 151° |
| 2026-04-30 22:47 | 26.33190 | 134.35206 | 32994 ft | 508 kts | 152° |
| 2026-04-30 22:48 | 26.21587 | 134.44135 | 32989 ft | 508 kts | 151° |
| 2026-04-30 22:49 | 26.04104 | 134.57547 | 32991 ft | 508 kts | 151° |
| 2026-04-30 22:51 | 25.86689 | 134.70858 | 33010 ft | 507 kts | 151° |
| 2026-04-30 22:52 | 25.77965 | 134.77508 | 33011 ft | 507 kts | 151° |
| 2026-04-30 22:53 | 25.66334 | 134.86356 | 33018 ft | 507 kts | 151° |
| 2026-04-30 22:53 | 25.57638 | 134.92958 | 33019 ft | 507 kts | 151° |
| 2026-04-30 22:55 | 25.42881 | 135.03511 | 33020 ft | 503 kts | 155° |
| 2026-04-30 22:56 | 25.30780 | 135.11347 | 33020 ft | 504 kts | 155° |
| 2026-04-30 22:57 | 25.15701 | 135.21185 | 33019 ft | 503 kts | 154° |
| 2026-04-30 22:58 | 25.03632 | 135.29042 | 33026 ft | 503 kts | 154° |
| 2026-04-30 22:59 | 24.85568 | 135.40765 | 33031 ft | 503 kts | 154° |
| 2026-05-01 07:23 | -34.95852 | 173.86849 | 33511 ft | 488 kts | 162° |
| 2026-05-01 07:24 | -35.05363 | 173.91129 | 33515 ft | 487 kts | 162° |
| 2026-05-01 07:24 | -35.11719 | 173.93997 | 33538 ft | 486 kts | 162° |
| 2026-05-01 07:25 | -35.18060 | 173.96860 | 33527 ft | 486 kts | 162° |